createdAt,value
2022-11-07T00:00:18.375Z,1.20
2022-11-07T00:02:48.494Z,2.37
2022-11-07T00:05:20.547Z,1.43
2022-11-07T00:07:50.824Z,1.33
2022-11-07T00:10:22.090Z,1.30
2022-11-07T00:12:52.386Z,1.87
2022-11-07T00:15:29.381Z,1.23
2022-11-07T00:18:01.043Z,1.10
2022-11-07T00:20:31.109Z,1.90
2022-11-07T00:23:01.223Z,2.47
2022-11-07T00:25:31.748Z,1.40
2022-11-07T00:28:02.028Z,1.00
2022-11-07T00:30:37.193Z,3.03
2022-11-07T00:33:07.594Z,2.13
2022-11-07T00:35:37.838Z,1.83
2022-11-07T00:38:11.074Z,1.97
2022-11-07T00:40:46.969Z,2.50
2022-11-07T00:43:30.035Z,1.80
2022-11-07T00:46:12.592Z,1.10
2022-11-07T00:48:43.524Z,2.00
2022-11-07T00:51:17.653Z,1.30
2022-11-07T00:53:51.626Z,1.30
2022-11-07T00:56:28.095Z,1.97
2022-11-07T00:59:02.506Z,1.57
2022-11-07T01:01:36.943Z,3.00
2022-11-07T01:04:19.664Z,3.50
2022-11-07T01:06:53.219Z,2.50
2022-11-07T01:09:25.351Z,4.80
2022-11-07T01:11:55.565Z,1.67
2022-11-07T01:14:26.721Z,2.50
2022-11-07T01:16:59.549Z,3.50
2022-11-07T01:19:32.902Z,2.00
2022-11-07T01:22:04.098Z,3.93
2022-11-07T01:24:37.853Z,3.27
2022-11-07T01:27:08.360Z,2.77
2022-11-07T01:29:39.109Z,4.37
2022-11-07T01:32:14.876Z,2.40
2022-11-07T01:34:45.092Z,2.67
2022-11-07T01:37:26.684Z,3.87
2022-11-07T01:39:57.150Z,5.60
2022-11-07T01:42:28.450Z,5.10
2022-11-07T01:45:02.741Z,2.57
2022-11-07T01:47:41.423Z,5.40
2022-11-07T01:50:14.898Z,3.30
2022-11-07T01:52:50.387Z,3.60
2022-11-07T01:55:25.735Z,4.23
2022-11-07T01:58:00.942Z,3.57
2022-11-07T02:00:35.738Z,2.43
2022-11-07T02:03:13.221Z,6.73
2022-11-07T02:05:52.186Z,4.87
2022-11-07T02:08:25.176Z,3.37
2022-11-07T02:11:08.298Z,2.87
2022-11-07T02:13:38.966Z,3.33
2022-11-07T02:16:22.334Z,2.30
2022-11-07T02:18:58.970Z,2.57
2022-11-07T02:21:46.708Z,2.83
2022-11-07T02:24:32.340Z,3.07
2022-11-07T02:27:12.673Z,5.47
2022-11-07T02:29:48.085Z,5.43
2022-11-07T02:32:18.774Z,3.53
2022-11-07T02:34:57.569Z,4.53
2022-11-07T02:37:35.579Z,2.27
2022-11-07T02:40:13.906Z,2.47
2022-11-07T02:42:49.045Z,3.53
2022-11-07T02:48:05.312Z,3.90
2022-11-07T02:50:39.290Z,3.00
2022-11-07T02:53:09.978Z,4.50
2022-11-07T02:55:52.018Z,4.70
2022-11-07T02:58:23.237Z,6.17
2022-11-07T03:00:53.319Z,4.03
2022-11-07T03:03:24.360Z,3.97
2022-11-07T03:05:54.618Z,4.40
2022-11-07T03:08:27.437Z,4.13
2022-11-07T03:11:00.234Z,4.47
2022-11-07T03:13:30.405Z,3.80
2022-11-07T03:16:01.483Z,3.30
2022-11-07T03:18:32.418Z,6.00
2022-11-07T03:21:02.967Z,3.40
2022-11-07T03:23:33.501Z,4.83
2022-11-07T03:26:06.554Z,4.97
2022-11-07T03:28:37.359Z,4.73
2022-11-07T03:31:08.945Z,4.60
2022-11-07T03:33:39.068Z,4.40
2022-11-07T03:36:13.155Z,3.93
2022-11-07T03:38:43.249Z,5.63
2022-11-07T03:41:19.013Z,4.93
2022-11-07T03:43:52.193Z,5.40
2022-11-07T03:46:22.804Z,4.00
2022-11-07T03:48:56.673Z,5.40
2022-11-07T03:51:33.174Z,8.07
2022-11-07T03:54:05.845Z,5.43
2022-11-07T03:56:40.856Z,5.17
2022-11-07T03:59:17.196Z,3.87
2022-11-07T04:01:50.106Z,5.40
2022-11-07T04:04:20.598Z,4.40
2022-11-07T04:06:50.687Z,4.83
2022-11-07T04:09:21.655Z,6.67
2022-11-07T04:12:08.777Z,6.20
2022-11-07T04:14:51.905Z,5.70
2022-11-07T04:17:22.663Z,6.30
2022-11-07T04:19:56.921Z,5.73
2022-11-07T04:22:29.325Z,8.13
2022-11-07T04:24:59.445Z,5.80
2022-11-07T04:27:44.661Z,6.30
2022-11-07T04:30:28.050Z,2.80
2022-11-07T04:33:08.682Z,6.43
2022-11-07T04:35:45.566Z,5.77
2022-11-07T04:38:17.913Z,4.37
2022-11-07T04:40:49.054Z,4.40
2022-11-07T04:43:21.740Z,5.53
2022-11-07T04:45:54.105Z,9.07
2022-11-07T04:48:24.903Z,2.77
2022-11-07T04:51:01.890Z,6.23
2022-11-07T04:53:39.940Z,5.60
2022-11-07T04:56:10.680Z,4.47
2022-11-07T04:58:45.663Z,4.22
2022-11-07T05:01:16.006Z,4.90
2022-11-07T05:03:46.232Z,5.28
2022-11-07T05:06:19.044Z,6.30
2022-11-07T05:08:49.124Z,7.50
2022-11-07T05:11:19.180Z,6.40
2022-11-07T05:13:57.028Z,6.77
2022-11-07T05:16:27.243Z,5.60
2022-11-07T05:18:57.392Z,4.85
2022-11-07T05:21:27.921Z,9.33
2022-11-07T05:23:59.240Z,5.10
2022-11-07T05:26:29.307Z,6.88
2022-11-07T05:29:02.214Z,6.18
2022-11-07T05:31:32.534Z,6.53
2022-11-07T05:34:04.234Z,6.28
2022-11-07T05:36:34.794Z,10.63
2022-11-07T05:39:06.140Z,9.00
2022-11-07T05:41:41.406Z,8.65
2022-11-07T05:44:17.198Z,8.20
2022-11-07T05:46:52.643Z,6.88
2022-11-07T05:49:23.938Z,4.13
2022-11-07T05:51:54.268Z,6.63
2022-11-07T05:54:28.081Z,6.47
2022-11-07T05:57:04.788Z,3.83
2022-11-07T05:59:45.810Z,5.80
2022-11-07T06:02:16.414Z,6.97
2022-11-07T06:04:47.883Z,6.20
2022-11-07T06:07:18.084Z,8.07
2022-11-07T06:09:51.815Z,2.95
2022-11-07T06:12:29.311Z,8.65
2022-11-07T06:15:02.005Z,6.65
2022-11-07T06:17:32.591Z,7.18
2022-11-07T06:20:03.320Z,8.35
2022-11-07T06:22:33.407Z,7.72
2022-11-07T06:25:04.888Z,7.75
2022-11-07T06:27:35.327Z,4.05
2022-11-07T06:30:10.138Z,5.05
2022-11-07T06:32:44.195Z,8.90
2022-11-07T06:35:17.814Z,4.70
2022-11-07T06:37:48.353Z,4.50
2022-11-07T06:40:22.075Z,6.68
2022-11-07T06:42:53.255Z,3.97
2022-11-07T06:45:25.982Z,10.55
2022-11-07T06:48:05.945Z,8.02
2022-11-07T06:50:36.845Z,4.78
2022-11-07T06:53:09.889Z,5.50
2022-11-07T06:55:41.166Z,8.43
2022-11-07T06:58:11.783Z,9.20
2022-11-07T07:00:51.874Z,6.13
2022-11-07T07:03:21.954Z,6.25
2022-11-07T07:05:54.907Z,7.75
2022-11-07T07:08:25.307Z,8.13
2022-11-07T07:10:55.598Z,8.38
2022-11-07T07:13:27.579Z,4.28
2022-11-07T07:16:02.966Z,6.75
2022-11-07T07:18:33.900Z,6.65
2022-11-07T07:21:10.271Z,6.25
2022-11-07T07:23:42.451Z,9.23
2022-11-07T07:26:18.137Z,9.82
2022-11-07T07:28:49.178Z,7.32
2022-11-07T07:31:30.710Z,10.10
2022-11-07T07:34:02.197Z,5.88
2022-11-07T07:36:33.138Z,4.88
2022-11-07T07:39:04.394Z,6.18
2022-11-07T07:41:40.053Z,8.50
2022-11-07T07:44:10.715Z,7.18
2022-11-07T07:46:43.365Z,8.23
2022-11-07T07:49:13.743Z,8.75
2022-11-07T07:51:43.961Z,8.05
2022-11-07T07:54:14.896Z,6.55
2022-11-07T07:56:45.205Z,6.00
2022-11-07T07:59:15.709Z,5.30
2022-11-07T08:01:55.169Z,5.65
2022-11-07T08:04:26.910Z,5.57
2022-11-07T08:06:59.614Z,7.00
2022-11-07T08:09:31.549Z,5.13
2022-11-07T08:12:01.591Z,8.57
2022-11-07T08:14:32.031Z,6.32
2022-11-07T08:17:07.428Z,3.75
2022-11-07T08:19:37.504Z,5.75
2022-11-07T08:22:07.813Z,6.38
2022-11-07T08:24:40.630Z,6.78
2022-11-07T08:27:10.821Z,3.60
2022-11-07T08:29:41.700Z,5.93
2022-11-07T08:32:14.406Z,4.10
2022-11-07T08:34:45.824Z,4.82
2022-11-07T08:37:17.253Z,4.95
2022-11-07T08:39:47.808Z,5.18
2022-11-07T08:42:23.629Z,2.78
2022-11-07T08:44:53.668Z,5.22
2022-11-07T08:47:27.094Z,3.30
2022-11-07T08:49:57.398Z,2.60
2022-11-07T08:52:27.847Z,3.03
2022-11-07T08:54:58.048Z,5.20
2022-11-07T08:57:28.139Z,7.57
2022-11-07T08:59:58.472Z,3.85
2022-11-07T09:03:23.953Z,5.53
2022-11-07T09:05:23.802Z,5.53
2022-11-07T09:07:53.933Z,2.92
2022-11-07T09:10:24.461Z,4.55
2022-11-07T09:12:58.408Z,4.43
2022-11-07T09:15:28.673Z,4.15
2022-11-07T09:18:06.066Z,6.45
2022-11-07T09:20:37.022Z,4.00
2022-11-07T09:23:07.127Z,3.92
2022-11-07T09:25:37.194Z,3.38
2022-11-07T09:28:10.116Z,5.30
2022-11-07T09:30:47.945Z,3.53
2022-11-07T09:33:20.576Z,4.50
2022-11-07T09:35:50.869Z,3.95
2022-11-07T09:38:21.498Z,3.65
2022-11-07T09:41:08.331Z,3.15
2022-11-07T09:44:05.051Z,3.42
2022-11-07T09:46:58.826Z,2.95
2022-11-07T09:49:39.294Z,5.05
2022-11-07T09:52:19.983Z,3.78
2022-11-07T09:55:00.147Z,3.55
2022-11-07T09:57:37.526Z,4.38
2022-11-07T10:00:18.339Z,2.00
2022-11-07T10:02:51.785Z,4.10
2022-11-07T10:05:40.634Z,2.33
2022-11-07T10:08:24.473Z,3.80
2022-11-07T10:11:01.237Z,2.83
2022-11-07T10:14:00.130Z,2.80
2022-11-07T10:16:50.410Z,3.05
2022-11-07T10:19:36.616Z,2.85
2022-11-07T10:22:29.993Z,1.95
2022-11-07T10:25:24.346Z,2.92
2022-11-07T10:28:13.625Z,1.88
2022-11-07T10:30:49.878Z,1.23
2022-11-07T10:33:41.996Z,1.05
2022-11-07T10:36:25.395Z,1.48
2022-11-07T10:38:58.909Z,0.90
2022-11-07T10:41:35.715Z,1.55
2022-11-07T10:44:16.640Z,3.20
2022-11-07T10:46:53.315Z,1.52
2022-11-07T10:49:31.542Z,2.00
2022-11-07T10:52:13.903Z,3.17
2022-11-07T10:54:47.332Z,1.70
2022-11-07T10:57:22.652Z,2.40
2022-11-07T11:00:04.440Z,2.45
2022-11-07T11:02:48.302Z,3.13
2022-11-07T11:05:29.411Z,2.67
2022-11-07T11:08:19.104Z,1.42
2022-11-07T11:10:53.396Z,1.52
2022-11-07T11:13:31.161Z,1.70
2022-11-07T11:16:22.112Z,0.75
2022-11-07T11:18:54.413Z,1.05
2022-11-07T11:21:25.169Z,1.65
2022-11-07T11:23:57.370Z,1.58
2022-11-07T11:26:35.381Z,4.07
2022-11-07T11:29:12.073Z,0.80
2022-11-07T11:31:49.235Z,0.68
2022-11-07T11:34:27.221Z,2.25
2022-11-07T11:37:07.322Z,1.70
2022-11-07T11:39:48.606Z,1.52
2022-11-07T11:42:37.236Z,2.65
2022-11-07T11:45:20.870Z,2.70
2022-11-07T11:48:04.628Z,1.70
2022-11-07T11:50:48.502Z,0.95
2022-11-07T11:53:24.134Z,1.92
2022-11-07T11:56:19.805Z,1.63
2022-11-07T11:59:12.685Z,3.70
2022-11-07T12:02:00.642Z,1.00
2022-11-07T12:04:53.552Z,0.68
2022-11-07T12:07:54.804Z,1.20
2022-11-07T12:10:38.386Z,1.98
2022-11-07T12:13:26.738Z,1.52
2022-11-07T12:16:15.862Z,1.40
2022-11-07T12:19:02.786Z,2.30
2022-11-07T12:21:39.360Z,1.48
2022-11-07T12:24:38.181Z,1.88
2022-11-07T12:27:24.133Z,0.88
2022-11-07T12:30:23.755Z,1.92
2022-11-07T12:33:24.787Z,2.97
2022-11-07T12:36:05.647Z,1.13
2022-11-07T12:39:12.029Z,1.02
2022-11-07T12:42:03.299Z,1.67
2022-11-07T12:45:06.844Z,2.10
2022-11-07T12:48:17.439Z,1.02
2022-11-07T12:51:03.340Z,2.13
2022-11-07T12:53:48.182Z,2.67
2022-11-07T12:56:29.583Z,2.85
2022-11-07T12:59:06.982Z,1.55
2022-11-07T13:01:47.083Z,2.15
2022-11-07T13:04:34.321Z,3.25
2022-11-07T13:07:14.178Z,1.55
2022-11-07T13:09:57.201Z,1.15
2022-11-07T13:12:40.615Z,1.80
2022-11-07T13:15:15.661Z,2.60
2022-11-07T13:17:48.795Z,2.58
2022-11-07T13:20:33.910Z,2.03
2022-11-07T13:23:16.339Z,2.45
2022-11-07T13:25:59.885Z,1.52
2022-11-07T13:28:40.582Z,2.55
2022-11-07T13:31:36.323Z,4.35
2022-11-07T13:34:26.740Z,2.28
2022-11-07T13:37:06.994Z,2.50
2022-11-07T13:39:37.882Z,2.15
2022-11-07T13:42:17.750Z,2.13
2022-11-07T13:44:59.450Z,2.63
2022-11-07T13:47:41.954Z,2.28
2022-11-07T13:50:24.067Z,3.88
2022-11-07T13:53:07.913Z,3.83
2022-11-07T13:55:48.792Z,3.15
2022-11-07T13:58:21.774Z,2.50
2022-11-07T14:00:51.957Z,2.65
2022-11-07T14:03:36.242Z,2.05
2022-11-07T14:06:08.882Z,3.50
2022-11-07T14:08:50.243Z,1.38
2022-11-07T14:11:24.427Z,2.25
2022-11-07T14:13:57.425Z,2.45
2022-11-07T14:16:33.522Z,2.42
2022-11-07T14:19:07.115Z,3.28
2022-11-07T14:21:40.046Z,2.92
2022-11-07T14:24:27.429Z,3.30
2022-11-07T14:27:09.133Z,3.28
2022-11-07T14:29:39.234Z,3.17
2022-11-07T14:32:10.963Z,2.42
2022-11-07T14:34:48.587Z,2.60
2022-11-07T14:37:22.205Z,4.53
2022-11-07T14:39:57.382Z,2.95
2022-11-07T14:42:29.104Z,2.72
2022-11-07T14:45:04.972Z,2.42
2022-11-07T14:47:37.503Z,3.80
2022-11-07T14:50:18.783Z,3.55
2022-11-07T14:53:07.201Z,3.45
2022-11-07T14:55:51.509Z,3.13
2022-11-07T14:58:28.541Z,2.95
2022-11-07T15:01:02.462Z,3.35
2022-11-07T15:03:54.499Z,5.20
2022-11-07T15:06:33.288Z,2.42
2022-11-07T15:09:09.438Z,1.95
2022-11-07T15:11:59.218Z,2.75
2022-11-07T15:14:38.400Z,4.03
2022-11-07T15:17:11.049Z,2.72
2022-11-07T15:19:44.308Z,2.70
2022-11-07T15:22:32.460Z,1.95
2022-11-07T15:25:05.145Z,2.45
2022-11-07T15:27:53.844Z,3.15
2022-11-07T15:30:40.571Z,3.28
2022-11-07T15:33:17.143Z,2.53
2022-11-07T15:35:50.442Z,3.38
2022-11-07T15:38:24.696Z,3.10
2022-11-07T15:41:01.347Z,3.78
2022-11-07T15:43:40.337Z,2.55
2022-11-07T15:46:40.914Z,2.30
2022-11-07T15:49:14.335Z,4.13
2022-11-07T15:51:44.546Z,2.17
2022-11-07T15:54:19.927Z,2.72
2022-11-07T15:56:58.217Z,3.72
2022-11-07T15:59:36.767Z,2.90
2022-11-07T16:02:10.356Z,3.55
2022-11-07T16:04:43.716Z,3.90
2022-11-07T16:07:20.376Z,4.15
2022-11-07T16:09:56.565Z,4.50
2022-11-07T16:12:29.637Z,2.83
2022-11-07T16:15:04.787Z,3.50
2022-11-07T16:17:34.967Z,2.78
2022-11-07T16:20:07.787Z,6.00
2022-11-07T16:22:37.862Z,3.05
2022-11-07T16:25:15.039Z,3.15
2022-11-07T16:27:54.363Z,5.63
2022-11-07T16:30:27.314Z,10.35
2022-11-07T16:32:58.530Z,5.07
2022-11-07T16:35:28.822Z,5.57
2022-11-07T16:38:03.905Z,3.78
2022-11-07T16:40:34.134Z,4.65
2022-11-07T16:43:05.329Z,3.38
2022-11-07T16:45:50.606Z,5.63
2022-11-07T16:48:26.434Z,5.30
2022-11-07T16:50:58.893Z,4.43
2022-11-07T16:53:37.444Z,4.57
2022-11-07T16:56:18.327Z,5.80
2022-11-07T16:58:50.634Z,3.65
2022-11-07T17:01:27.544Z,4.95
2022-11-07T17:03:58.211Z,3.63
2022-11-07T17:06:43.491Z,4.38
2022-11-07T17:09:18.474Z,6.00
2022-11-07T17:11:49.883Z,5.93
2022-11-07T17:14:19.962Z,3.33
2022-11-07T17:16:52.662Z,3.30
2022-11-07T17:19:24.222Z,3.33
2022-11-07T17:21:54.312Z,4.10
2022-11-07T17:24:24.766Z,4.25
2022-11-07T17:26:55.082Z,3.72
2022-11-07T17:29:25.346Z,7.03
2022-11-07T17:31:58.105Z,5.15
2022-11-07T17:34:28.537Z,4.32
2022-11-07T17:36:59.614Z,6.95
2022-11-07T17:39:32.060Z,3.22
2022-11-07T17:42:02.402Z,4.65
2022-11-07T17:44:40.502Z,3.85
2022-11-07T17:47:31.135Z,4.05
2022-11-07T17:50:01.575Z,7.78
2022-11-07T17:52:31.718Z,4.60
2022-11-07T17:55:02.153Z,4.68
2022-11-07T17:57:32.471Z,7.07
2022-11-07T18:00:04.014Z,4.57
2022-11-07T18:02:36.926Z,7.80
2022-11-07T18:05:09.917Z,5.30
2022-11-07T18:07:44.126Z,6.65
2022-11-07T18:10:16.820Z,7.60
2022-11-07T18:12:47.329Z,7.70
2022-11-07T18:15:17.368Z,6.80
2022-11-07T18:17:53.641Z,8.20
2022-11-07T18:20:26.018Z,6.50
2022-11-07T18:23:00.543Z,6.40
2022-11-07T18:25:31.278Z,4.50
2022-11-07T18:28:10.335Z,5.70
2022-11-07T18:30:40.573Z,6.63
2022-11-07T18:33:15.985Z,9.70
2022-11-07T18:35:49.888Z,7.15
2022-11-07T18:38:20.044Z,4.80
2022-11-07T18:41:00.054Z,9.27
2022-11-07T18:43:33.519Z,8.85
2022-11-07T18:46:10.048Z,7.95
2022-11-07T18:48:43.681Z,6.80
2022-11-07T18:51:17.857Z,7.40
2022-11-07T18:53:48.637Z,6.70
2022-11-07T18:56:19.117Z,11.20
2022-11-07T18:58:50.611Z,6.30
2022-11-07T19:01:24.560Z,5.65
2022-11-07T19:03:59.726Z,8.25
2022-11-07T19:06:32.894Z,3.88
2022-11-07T19:09:03.597Z,7.13
2022-11-07T19:11:34.780Z,11.13
2022-11-07T19:14:08.392Z,11.73
2022-11-07T19:16:44.699Z,11.85
2022-11-07T19:19:23.617Z,6.68
2022-11-07T19:21:53.877Z,7.05
2022-11-07T19:24:23.959Z,7.85
2022-11-07T19:26:54.070Z,8.90
2022-11-07T19:29:26.758Z,9.48
2022-11-07T19:31:57.278Z,9.52
2022-11-07T19:34:30.246Z,38.97
2022-11-07T19:37:00.350Z,21.95
2022-11-07T19:39:32.239Z,31.20
2022-11-07T19:42:02.319Z,32.05
2022-11-07T19:44:36.335Z,21.30
2022-11-07T19:47:06.773Z,32.10
2022-11-07T19:49:39.537Z,21.17
2022-11-07T19:52:15.332Z,14.70
2022-11-07T19:54:51.452Z,11.07
2022-11-07T19:57:21.824Z,10.10
2022-11-07T19:59:51.987Z,6.88
2022-11-07T20:02:33.070Z,6.18
2022-11-07T20:05:08.555Z,9.88
2022-11-07T20:07:38.630Z,5.53
2022-11-07T20:10:10.956Z,3.40
2022-11-07T20:12:41.070Z,7.07
2022-11-07T20:15:15.595Z,4.32
2022-11-07T20:17:46.631Z,7.13
2022-11-07T20:20:19.614Z,6.65
2022-11-07T20:22:52.971Z,7.40
2022-11-07T20:25:38.174Z,6.22
2022-11-07T20:28:08.349Z,6.75
2022-11-07T20:30:46.824Z,5.93
2022-11-07T20:33:17.357Z,8.60
2022-11-07T20:36:01.356Z,8.20
2022-11-07T20:38:32.358Z,9.20
2022-11-07T20:41:14.848Z,14.00
2022-11-07T20:43:47.733Z,7.82
2022-11-07T20:46:18.387Z,8.70
2022-11-07T20:48:48.591Z,10.27
2022-11-07T20:51:31.589Z,7.72
2022-11-07T20:54:04.050Z,11.25
2022-11-07T20:56:34.718Z,8.63
2022-11-07T20:59:04.858Z,13.43
2022-11-07T21:01:40.607Z,8.95
2022-11-07T21:04:16.055Z,8.23
2022-11-07T21:06:48.848Z,8.48
2022-11-07T21:09:19.864Z,7.45
2022-11-07T21:11:53.010Z,7.00
2022-11-07T21:14:23.148Z,8.40
2022-11-07T21:16:53.366Z,6.40
2022-11-07T21:19:23.446Z,8.65
2022-11-07T21:21:58.884Z,10.20
2022-11-07T21:24:32.463Z,9.23
2022-11-07T21:27:02.694Z,7.45
2022-11-07T21:29:36.203Z,6.40
2022-11-07T21:32:09.228Z,5.28
2022-11-07T21:34:39.947Z,9.82
2022-11-07T21:37:17.694Z,6.18
2022-11-07T21:39:47.787Z,8.63
2022-11-07T21:42:18.266Z,8.93
2022-11-07T21:44:48.444Z,7.50
2022-11-07T21:47:18.666Z,9.18
2022-11-07T21:49:51.937Z,4.88
2022-11-07T21:52:29.885Z,7.00
2022-11-07T21:55:06.384Z,12.75
2022-11-07T21:57:36.506Z,9.60
2022-11-07T22:00:10.590Z,6.55
2022-11-07T22:02:41.445Z,11.38
2022-11-07T22:05:15.450Z,5.90
2022-11-07T22:07:48.204Z,11.98
2022-11-07T22:10:18.462Z,7.65
2022-11-07T22:12:50.673Z,7.97
2022-11-07T22:15:20.870Z,11.98
2022-11-07T22:17:50.991Z,4.88
2022-11-07T22:20:21.106Z,11.07
2022-11-07T22:22:53.815Z,10.52
2022-11-07T22:25:26.974Z,8.80
2022-11-07T22:27:57.140Z,8.73
2022-11-07T22:30:38.651Z,6.22
2022-11-07T22:33:17.159Z,3.72
2022-11-07T22:35:47.502Z,6.05
2022-11-07T22:38:20.411Z,6.78
2022-11-07T22:40:53.610Z,7.18
2022-11-07T22:43:23.719Z,8.63
2022-11-07T22:45:56.587Z,6.88
2022-11-07T22:48:26.681Z,7.10
2022-11-07T22:51:03.203Z,8.73
2022-11-07T22:53:40.044Z,8.95
2022-11-07T22:56:11.435Z,6.68
2022-11-07T22:58:42.540Z,7.50
2022-11-07T23:01:20.641Z,6.57
2022-11-07T23:03:51.670Z,7.78
2022-11-07T23:06:22.950Z,6.68
2022-11-07T23:08:57.757Z,9.05
2022-11-07T23:11:48.577Z,5.80
2022-11-07T23:14:25.623Z,7.50
2022-11-07T23:17:01.772Z,9.40
2022-11-07T23:19:34.540Z,7.60
2022-11-07T23:22:04.677Z,8.82
2022-11-07T23:24:38.287Z,7.65
2022-11-07T23:27:11.038Z,6.72
2022-11-07T23:29:41.147Z,5.13
2022-11-07T23:32:12.453Z,5.35
2022-11-07T23:34:42.803Z,4.97
2022-11-07T23:37:17.997Z,4.57
2022-11-07T23:39:50.658Z,4.95
2022-11-07T23:42:20.792Z,4.97
2022-11-07T23:45:03.251Z,5.50
2022-11-07T23:47:45.843Z,4.45
2022-11-07T23:50:31.265Z,3.75
2022-11-07T23:53:21.384Z,6.72
2022-11-07T23:55:54.249Z,3.67
2022-11-07T23:58:36.769Z,3.25
